Time;durP1;ratioP1;P1;durP2;ratioP2;P2;SDS_P1;SDS_P2;PMS_P1;PMS_P2;Temp;Humidity;BMP_temperature;BMP_pressure;BME280_temperature;BME280_humidity;BME280_pressure;Samples;Min_cycle;Max_cycle;Signal;HPM_P1;HPM_P2
2022/01/06 00:01:00;;;;;;;27.70;3.83;;;7.70;98.00;;;;;;5120241;27;20544;-72
2022/01/06 00:03:27;;;;;;;24.83;3.25;;;7.70;97.50;;;;;;5093249;28;20738;-72
2022/01/06 00:05:56;;;;;;;19.85;3.33;;;7.70;97.30;;;;;;5108394;27;20992;-70
2022/01/06 00:08:22;;;;;;;25.95;3.40;;;7.70;97.20;;;;;;5104540;27;20418;-72
2022/01/06 00:10:48;;;;;;;23.23;3.57;;;7.70;97.30;;;;;;5107251;27;20407;-71
2022/01/06 00:13:18;;;;;;;21.67;3.42;;;7.70;97.40;;;;;;5111523;27;20415;-72
2022/01/06 00:16:39;;;;;;;26.23;3.30;;;7.70;97.60;;;;;;5112878;27;20459;-71
2022/01/06 00:23:42;;;;;;;22.88;3.72;;;7.80;97.60;;;;;;5104961;28;20400;-73
2022/01/06 00:26:08;;;;;;;21.35;3.20;;;7.80;97.60;;;;;;5113478;27;20415;-72
2022/01/06 00:28:34;;;;;;;24.45;3.17;;;7.80;97.50;;;;;;5106791;28;20415;-73
2022/01/06 00:31:01;;;;;;;22.70;3.17;;;7.90;97.00;;;;;;5089963;28;20419;-71
2022/01/06 00:33:29;;;;;;;20.20;3.03;;;7.80;97.20;;;;;;5103926;28;20419;-72
2022/01/06 00:35:55;;;;;;;22.10;3.10;;;7.80;97.00;;;;;;5108033;28;20404;-73
2022/01/06 00:38:22;;;;;;;21.93;2.90;;;7.80;96.80;;;;;;5111705;28;20398;-71
2022/01/06 00:40:48;;;;;;;21.77;3.50;;;7.80;96.50;;;;;;5113424;28;20885;-73
2022/01/06 00:43:14;;;;;;;23.05;3.00;;;7.70;96.50;;;;;;5111030;27;20397;-72
2022/01/06 00:45:39;;;;;;;20.97;3.47;;;7.70;96.60;;;;;;5115708;28;22873;-72
2022/01/06 00:48:12;;;;;;;19.48;3.38;;;7.70;96.40;;;;;;5118977;28;20404;-73
2022/01/06 00:50:40;;;;;;;21.23;3.25;;;7.70;96.40;;;;;;5113040;28;20415;-71
2022/01/06 00:53:06;;;;;;;22.60;3.60;;;7.60;96.60;;;;;;5118545;28;20457;-73
2022/01/06 00:55:35;;;;;;;22.17;3.28;;;7.60;96.80;;;;;;5106669;28;20408;-73
2022/01/06 00:58:02;;;;;;;24.25;3.50;;;7.60;97.10;;;;;;5107001;28;20458;-73
2022/01/06 01:00:37;;;;;;;21.75;3.40;;;7.60;97.40;;;;;;5092375;28;20516;-73
2022/01/06 01:03:11;;;;;;;23.35;3.15;;;7.60;97.30;;;;;;5108715;28;20411;-71
2022/01/06 01:05:42;;;;;;;24.10;3.50;;;7.60;97.50;;;;;;5108566;28;20930;-70
2022/01/06 01:08:08;;;;;;;27.80;3.33;;;7.60;97.60;;;;;;5113911;27;20445;-71
2022/01/06 01:10:35;;;;;;;19.67;3.00;;;7.50;97.60;;;;;;5115791;27;20411;-71
2022/01/06 01:13:00;;;;;;;21.60;3.13;;;7.50;97.40;;;;;;5118815;27;20450;-71
2022/01/06 01:15:27;;;;;;;19.17;2.90;;;7.50;97.70;;;;;;5114870;27;20435;-71
2022/01/06 01:17:54;;;;;;;18.02;2.80;;;7.50;97.30;;;;;;5115671;27;20414;-72
2022/01/06 01:20:20;;;;;;;22.63;3.25;;;7.50;97.50;;;;;;5114226;27;20418;-71
2022/01/06 01:22:47;;;;;;;23.27;3.17;;;7.50;98.10;;;;;;5111631;27;22971;-72
2022/01/06 01:25:14;;;;;;;29.27;4.00;;;7.50;98.50;;;;;;5114713;27;20496;-72
2022/01/06 01:27:43;;;;;;;26.27;3.78;;;7.50;98.80;;;;;;5111830;27;20438;-71
2022/01/06 01:30:13;;;;;;;27.70;4.15;;;7.50;99.30;;;;;;5112922;27;20417;-72
2022/01/06 01:32:41;;;;;;;25.58;3.47;;;7.50;99.60;;;;;;5110011;27;20601;-71
2022/01/06 01:35:09;;;;;;;17.90;2.80;;;7.50;99.90;;;;;;5108587;27;20510;-71
2022/01/06 01:37:37;;;;;;;15.77;2.60;;;7.50;99.70;;;;;;5112382;27;20414;-72
2022/01/06 01:40:05;;;;;;;16.20;2.50;;;7.50;99.60;;;;;;5111911;27;21297;-72
2022/01/06 01:42:33;;;;;;;18.80;3.15;;;7.60;99.30;;;;;;5093860;28;20411;-72
2022/01/06 01:45:01;;;;;;;19.27;2.87;;;7.60;99.00;;;;;;5110441;28;20414;-72
2022/01/06 01:47:48;;;;;;;18.40;2.70;;;7.60;98.80;;;;;;5111943;27;21050;-71
2022/01/06 01:50:20;;;;;;;18.10;2.60;;;7.60;98.90;;;;;;5108823;28;20488;-72
2022/01/06 01:52:53;;;;;;;18.95;2.65;;;7.60;98.90;;;;;;5108213;27;20478;-72
2022/01/06 01:55:21;;;;;;;18.65;2.80;;;7.60;99.10;;;;;;5111283;27;20416;-72
2022/01/06 01:57:48;;;;;;;18.48;2.78;;;7.70;99.30;;;;;;5108790;27;20418;-71
2022/01/06 02:00:15;;;;;;;19.67;3.00;;;7.70;99.10;;;;;;5122219;27;20455;-71
2022/01/06 02:02:42;;;;;;;20.38;3.22;;;7.70;98.90;;;;;;5115761;27;20836;-72
2022/01/06 02:05:08;;;;;;;20.70;3.03;;;7.70;99.10;;;;;;5112580;27;20434;-71
2022/01/06 02:07:36;;;;;;;23.20;3.57;;;7.70;98.90;;;;;;5090601;28;20408;-71
2022/01/06 02:10:04;;;;;;;22.90;3.67;;;7.60;98.90;;;;;;5106611;27;20424;-72
2022/01/06 02:12:33;;;;;;;23.05;3.65;;;7.60;99.10;;;;;;5106187;27;20764;-72
2022/01/06 02:14:59;;;;;;;26.42;4.30;;;7.60;99.50;;;;;;5107490;28;20412;-71
2022/01/06 02:17:24;;;;;;;23.77;3.85;;;7.50;99.20;;;;;;5109990;27;20404;-71
2022/01/06 02:19:54;;;;;;;23.83;4.07;;;7.50;99.60;;;;;;5108813;28;20457;-72
2022/01/06 02:22:21;;;;;;;24.90;4.30;;;7.50;99.40;;;;;;5093734;27;20410;-71
2022/01/06 02:24:47;;;;;;;30.48;3.75;;;7.40;99.20;;;;;;5106836;27;20892;-73
2022/01/06 02:27:12;;;;;;;24.13;3.60;;;7.40;99.20;;;;;;5113681;27;20405;-72
2022/01/06 02:29:38;;;;;;;26.10;4.05;;;7.40;99.60;;;;;;5098045;28;20943;-73
2022/01/06 02:32:14;;;;;;;24.45;3.90;;;7.40;99.80;;;;;;5110608;27;20448;-72
2022/01/06 02:34:40;;;;;;;23.27;3.35;;;7.30;99.80;;;;;;5118921;27;20769;-72
2022/01/06 02:37:05;;;;;;;22.15;3.30;;;7.30;99.60;;;;;;5108273;27;20416;-73
2022/01/06 02:39:31;;;;;;;20.53;2.97;;;7.30;99.80;;;;;;5091579;28;20473;-72
2022/01/06 02:41:57;;;;;;;20.27;3.20;;;7.30;99.70;;;;;;5114300;27;20511;-73
2022/01/06 02:44:25;;;;;;;21.27;3.50;;;7.30;99.70;;;;;;5111943;27;20499;-72
2022/01/06 02:46:51;;;;;;;18.95;2.97;;;7.20;99.40;;;;;;5115369;27;20837;-72
2022/01/06 02:49:17;;;;;;;20.50;3.10;;;7.20;99.50;;;;;;5112752;27;20919;-71
2022/01/06 02:51:42;;;;;;;20.50;2.97;;;7.20;99.90;;;;;;5116714;27;20421;-72
2022/01/06 02:54:09;;;;;;;25.67;3.50;;;7.20;99.80;;;;;;5120069;27;20421;-73
2022/01/06 02:56:34;;;;;;;26.45;3.88;;;7.20;99.80;;;;;;5087820;28;20408;-73
2022/01/06 02:59:00;;;;;;;20.45;3.65;;;7.20;99.90;;;;;;5108232;28;20903;-74
2022/01/06 03:01:25;;;;;;;28.87;3.93;;;7.10;99.80;;;;;;5103298;28;20407;-73
2022/01/06 03:03:51;;;;;;;28.27;4.20;;;7.10;99.90;;;;;;5118847;27;20396;-73
2022/01/06 03:06:17;;;;;;;26.70;4.32;;;7.10;99.90;;;;;;5092472;27;20403;-72
2022/01/06 03:08:42;;;;;;;27.30;4.57;;;7.10;99.90;;;;;;5095709;27;20914;-73
2022/01/06 03:11:08;;;;;;;24.50;4.30;;;7.10;99.90;;;;;;5110202;27;20788;-72
2022/01/06 03:13:34;;;;;;;26.35;4.38;;;7.10;99.90;;;;;;5107016;28;20416;-73
2022/01/06 03:16:01;;;;;;;23.25;4.10;;;7.10;99.90;;;;;;5110885;27;20454;-73
2022/01/06 03:18:27;;;;;;;21.25;4.15;;;7.10;99.90;;;;;;5113469;27;20445;-74
2022/01/06 03:20:53;;;;;;;27.50;4.03;;;7.10;99.90;;;;;;5110243;27;20742;-73
2022/01/06 03:23:19;;;;;;;26.10;3.97;;;7.10;99.90;;;;;;5127042;27;20403;-74
2022/01/06 03:25:45;;;;;;;22.85;3.65;;;7.00;99.90;;;;;;5110337;27;20776;-73
2022/01/06 03:28:11;;;;;;;24.57;3.60;;;7.00;99.90;;;;;;5106507;28;20408;-73
2022/01/06 03:30:40;;;;;;;20.55;3.15;;;7.00;99.80;;;;;;5089102;28;20793;-73
2022/01/06 03:33:06;;;;;;;27.90;3.70;;;7.00;99.80;;;;;;5104773;27;20403;-73
2022/01/06 03:35:32;;;;;;;27.88;3.90;;;7.00;99.90;;;;;;5112489;27;20994;-73
2022/01/06 03:37:58;;;;;;;26.33;3.60;;;7.00;99.90;;;;;;5106388;27;20424;-73
2022/01/06 03:40:23;;;;;;;20.07;3.13;;;7.00;99.90;;;;;;5113977;27;20434;-73
2022/01/06 03:42:49;;;;;;;27.50;3.53;;;6.90;99.90;;;;;;5105971;27;20418;-73
2022/01/06 03:45:18;;;;;;;29.27;4.00;;;6.90;99.90;;;;;;5115671;27;20408;-73
2022/01/06 03:47:44;;;;;;;22.90;3.28;;;7.00;99.90;;;;;;5111290;27;20897;-72
2022/01/06 03:50:13;;;;;;;22.58;3.80;;;7.00;99.90;;;;;;5115685;27;20416;-72
2022/01/06 03:52:38;;;;;;;32.67;4.30;;;6.90;99.90;;;;;;5112836;27;20765;-72
2022/01/06 03:55:08;;;;;;;24.30;3.92;;;6.90;99.90;;;;;;5112036;27;20434;-73
2022/01/06 03:57:34;;;;;;;32.35;3.88;;;6.90;99.90;;;;;;5111708;27;20444;-72
2022/01/06 04:00:01;;;;;;;23.67;3.40;;;6.80;99.90;;;;;;5116635;27;20497;-73
2022/01/06 04:02:38;;;;;;;26.95;4.18;;;6.90;99.90;;;;;;5109512;27;20988;-72
2022/01/06 04:05:04;;;;;;;22.17;3.78;;;6.80;99.90;;;;;;5110362;27;20479;-74
2022/01/06 04:07:30;;;;;;;29.92;3.55;;;6.80;99.90;;;;;;5112057;27;20420;-73
2022/01/06 04:09:55;;;;;;;26.93;3.20;;;6.80;99.90;;;;;;5121394;27;20398;-73
2022/01/06 04:12:21;;;;;;;26.52;3.80;;;6.80;99.90;;;;;;5107391;27;20404;-73
2022/01/06 04:14:46;;;;;;;25.37;3.40;;;6.80;99.90;;;;;;5110582;27;20404;-72
2022/01/06 04:17:12;;;;;;;28.00;3.70;;;6.80;99.90;;;;;;5112634;27;20905;-72
2022/01/06 04:19:38;;;;;;;24.23;3.30;;;6.80;99.90;;;;;;5099751;28;20416;-72
2022/01/06 04:22:07;;;;;;;32.33;4.18;;;6.70;99.90;;;;;;5104937;27;20905;-72
2022/01/06 04:24:34;;;;;;;26.33;3.85;;;6.70;99.90;;;;;;5106962;27;20752;-72
2022/01/06 04:27:00;;;;;;;21.37;3.83;;;6.70;99.90;;;;;;5118758;27;20761;-73
2022/01/06 04:29:26;;;;;;;22.55;3.45;;;6.70;99.90;;;;;;5113937;27;20444;-73
2022/01/06 04:31:52;;;;;;;27.90;3.60;;;6.70;99.90;;;;;;5106710;27;20847;-74
2022/01/06 04:34:18;;;;;;;24.95;2.97;;;6.70;99.90;;;;;;5107924;27;20507;-73
2022/01/06 04:36:49;;;;;;;20.67;2.85;;;6.70;99.90;;;;;;5105241;27;20908;-73
2022/01/06 04:39:15;;;;;;;22.35;2.97;;;6.60;99.90;;;;;;5111275;27;20423;-73
2022/01/06 04:41:40;;;;;;;21.00;3.50;;;6.60;99.90;;;;;;5110938;28;20408;-73
2022/01/06 04:44:06;;;;;;;25.75;3.38;;;6.60;99.90;;;;;;5125052;27;20945;-72
2022/01/06 04:46:32;;;;;;;22.30;3.13;;;6.60;99.90;;;;;;5123984;27;20449;-71
2022/01/06 04:48:57;;;;;;;25.83;3.00;;;6.60;99.90;;;;;;5121433;27;20438;-71
2022/01/06 04:51:23;;;;;;;21.70;2.97;;;6.60;99.90;;;;;;5118931;27;20484;-73
2022/01/06 04:53:48;;;;;;;33.40;3.60;;;6.60;99.90;;;;;;5097509;27;20758;-73
2022/01/06 04:56:14;;;;;;;18.50;3.00;;;6.60;99.90;;;;;;5117072;27;20412;-72
2022/01/06 04:58:40;;;;;;;19.60;2.90;;;6.50;99.90;;;;;;5116651;27;20407;-73
2022/01/06 05:01:06;;;;;;;25.27;3.20;;;6.50;99.90;;;;;;5113742;27;20416;-72
2022/01/06 05:03:31;;;;;;;25.83;3.05;;;6.50;99.90;;;;;;5111283;27;20954;-72
2022/01/06 05:05:57;;;;;;;20.77;3.13;;;6.50;99.90;;;;;;5125827;27;20428;-71
2022/01/06 05:08:22;;;;;;;25.42;3.53;;;6.50;99.90;;;;;;5100712;28;20446;-73
2022/01/06 05:10:48;;;;;;;22.03;3.50;;;6.50;99.90;;;;;;5118750;27;20411;-74
2022/01/06 05:13:14;;;;;;;22.92;3.47;;;6.50;99.90;;;;;;5113627;27;20420;-73
2022/01/06 05:15:39;;;;;;;18.50;2.83;;;6.40;99.90;;;;;;5119131;27;20398;-72
2022/01/06 05:18:05;;;;;;;25.92;3.40;;;6.40;99.90;;;;;;5119806;27;20401;-73
2022/01/06 05:20:30;;;;;;;28.70;3.60;;;6.40;99.90;;;;;;5118165;27;20462;-73
2022/01/06 05:22:57;;;;;;;33.65;3.70;;;6.40;99.90;;;;;;5118761;27;20472;-74
2022/01/06 05:25:28;;;;;;;29.52;3.75;;;6.40;99.90;;;;;;5122033;27;20406;-72
2022/01/06 05:27:55;;;;;;;29.08;3.35;;;6.40;99.90;;;;;;5112222;27;20903;-74
2022/01/06 05:30:21;;;;;;;24.00;3.37;;;6.30;99.90;;;;;;5117233;27;20960;-73
2022/01/06 05:32:47;;;;;;;29.07;3.50;;;6.40;99.90;;;;;;5120590;27;20765;-72
2022/01/06 05:35:13;;;;;;;30.73;4.20;;;6.40;99.90;;;;;;5117556;27;20414;-72
2022/01/06 05:37:39;;;;;;;28.60;3.70;;;6.40;99.90;;;;;;5101453;27;20404;-73
2022/01/06 05:40:05;;;;;;;25.33;3.83;;;6.40;99.90;;;;;;5113431;27;20734;-72
2022/01/06 05:42:31;;;;;;;27.50;3.90;;;6.40;99.90;;;;;;5109223;27;20406;-71
2022/01/06 05:44:56;;;;;;;22.77;3.60;;;6.40;99.90;;;;;;5112669;27;20418;-72
2022/01/06 05:47:22;;;;;;;25.63;3.78;;;6.40;99.90;;;;;;5114825;27;20421;-72
2022/01/06 05:49:48;;;;;;;25.73;3.80;;;6.40;99.90;;;;;;5119020;27;20902;-72
2022/01/06 05:52:13;;;;;;;20.08;3.42;;;6.40;99.90;;;;;;5127063;27;20402;-72
2022/01/06 05:54:39;;;;;;;26.45;4.07;;;6.30;99.90;;;;;;5110493;27;20503;-73
2022/01/06 05:57:06;;;;;;;21.30;4.00;;;6.30;99.90;;;;;;5113839;27;20416;-73
2022/01/06 05:59:32;;;;;;;26.48;3.88;;;6.20;99.90;;;;;;5118466;27;20588;-71
2022/01/06 06:01:59;;;;;;;27.90;4.65;;;6.30;99.90;;;;;;5098955;28;20491;-73
2022/01/06 06:04:25;;;;;;;23.05;3.80;;;6.20;99.90;;;;;;5107042;27;20420;-72
2022/01/06 06:06:50;;;;;;;30.70;3.80;;;6.20;99.90;;;;;;5111313;27;20487;-72
2022/01/06 06:09:16;;;;;;;23.92;3.85;;;6.20;99.90;;;;;;5110781;27;20412;-72
2022/01/06 06:11:42;;;;;;;25.03;3.70;;;6.10;99.90;;;;;;5116974;27;20417;-72
2022/01/06 06:14:07;;;;;;;28.30;4.47;;;6.10;99.90;;;;;;5111228;27;20438;-72
2022/01/06 06:16:33;;;;;;;18.70;3.05;;;6.10;99.90;;;;;;5111620;27;20190;-73
2022/01/06 06:18:59;;;;;;;26.10;3.22;;;5.70;99.90;;;;;;5121780;27;20203;-74
2022/01/06 06:21:25;;;;;;;24.15;3.42;;;5.40;99.90;;;;;;5108706;28;20211;-74
2022/01/06 06:23:50;;;;;;;26.58;2.88;;;5.20;99.90;;;;;;5109217;27;20543;-71
2022/01/06 06:26:16;;;;;;;22.38;3.72;;;5.00;99.90;;;;;;5110951;27;20415;-74
2022/01/06 06:28:42;;;;;;;23.53;3.70;;;5.20;99.90;;;;;;5111372;27;20418;-74
2022/01/06 06:31:08;;;;;;;28.02;3.95;;;5.40;99.90;;;;;;5106527;28;20450;-73
2022/01/06 06:33:33;;;;;;;22.75;4.10;;;5.60;99.90;;;;;;5108434;28;20407;-73
2022/01/06 06:35:59;;;;;;;23.33;4.70;;;5.60;99.90;;;;;;5109081;27;22837;-74
2022/01/06 06:38:25;;;;;;;34.88;10.88;;;5.70;99.90;;;;;;5122443;27;20406;-75
2022/01/06 06:40:50;;;;;;;33.90;11.13;;;5.70;99.90;;;;;;5111965;27;20414;-73
2022/01/06 06:43:16;;;;;;;25.73;6.38;;;5.70;99.90;;;;;;5122182;27;20469;-74
2022/01/06 06:45:42;;;;;;;25.25;4.53;;;5.70;99.90;;;;;;5110344;27;20487;-73
2022/01/06 06:48:09;;;;;;;23.05;4.28;;;5.70;99.90;;;;;;5109231;27;20411;-73
2022/01/06 06:50:35;;;;;;;27.02;4.03;;;5.70;99.90;;;;;;5107783;27;20420;-74
2022/01/06 06:53:02;;;;;;;24.20;4.33;;;5.70;99.90;;;;;;5094709;27;20404;-75
2022/01/06 06:55:28;;;;;;;22.88;4.40;;;5.70;99.90;;;;;;5113559;27;20463;-75
2022/01/06 06:57:54;;;;;;;23.77;4.30;;;5.70;99.90;;;;;;5112082;27;20419;-74
2022/01/06 07:00:19;;;;;;;23.13;4.50;;;5.70;99.90;;;;;;5109531;27;20900;-74
2022/01/06 07:02:45;;;;;;;25.45;4.60;;;5.70;99.90;;;;;;5105335;27;20471;-75
2022/01/06 07:05:11;;;;;;;25.30;4.35;;;5.70;99.90;;;;;;5106475;27;20868;-74
2022/01/06 07:07:37;;;;;;;21.87;4.20;;;5.70;99.90;;;;;;5105730;27;21038;-74
2022/01/06 07:10:04;;;;;;;26.80;5.57;;;5.70;99.90;;;;;;5108218;27;20512;-74
2022/01/06 07:12:30;;;;;;;20.80;3.85;;;5.70;99.90;;;;;;5110880;27;20408;-75
2022/01/06 07:14:57;;;;;;;24.38;4.85;;;5.70;99.90;;;;;;5114507;27;20784;-74
2022/01/06 07:17:23;;;;;;;23.65;4.78;;;5.60;99.90;;;;;;5113753;27;20422;-73
2022/01/06 07:19:49;;;;;;;28.77;5.20;;;5.60;99.90;;;;;;5113889;27;20421;-73
2022/01/06 07:22:14;;;;;;;25.45;4.72;;;5.60;99.90;;;;;;5106885;27;21154;-73
2022/01/06 07:24:40;;;;;;;20.60;4.20;;;5.70;99.90;;;;;;5111560;27;20391;-74
2022/01/06 07:27:06;;;;;;;19.25;4.45;;;5.70;99.90;;;;;;5109549;27;20843;-73
2022/01/06 07:29:31;;;;;;;23.52;4.97;;;5.70;99.90;;;;;;5112976;27;20504;-74
2022/01/06 07:31:57;;;;;;;25.73;4.87;;;5.70;99.90;;;;;;5108775;27;20416;-74
2022/01/06 07:34:23;;;;;;;19.15;4.80;;;5.70;99.90;;;;;;5103980;27;20519;-73
2022/01/06 07:36:49;;;;;;;23.03;4.90;;;5.70;99.90;;;;;;5108133;27;20767;-73
2022/01/06 07:39:15;;;;;;;21.45;4.55;;;5.60;99.90;;;;;;5106818;27;20486;-74
2022/01/06 07:41:41;;;;;;;24.95;4.40;;;5.60;99.90;;;;;;5101918;27;20942;-75
2022/01/06 07:44:07;;;;;;;20.75;4.18;;;5.60;99.90;;;;;;5104331;27;20457;-72
2022/01/06 07:46:37;;;;;;;30.10;4.38;;;5.60;99.90;;;;;;5084394;28;21265;-76
2022/01/06 07:49:03;;;;;;;23.95;5.10;;;5.60;99.90;;;;;;5097283;28;20483;-73
2022/01/06 07:51:31;;;;;;;23.83;4.53;;;5.60;99.90;;;;;;5103549;27;20817;-74
2022/01/06 07:53:58;;;;;;;26.75;5.13;;;5.60;99.90;;;;;;5111254;27;20419;-73
2022/01/06 07:56:24;;;;;;;23.60;5.10;;;5.50;99.90;;;;;;5104844;27;20404;-74
2022/01/06 07:58:50;;;;;;;22.45;5.35;;;5.50;99.90;;;;;;5109682;27;20416;-74
2022/01/06 08:01:16;;;;;;;22.30;5.65;;;5.50;99.90;;;;;;5093713;27;20416;-75
2022/01/06 08:03:42;;;;;;;25.50;5.45;;;5.50;99.90;;;;;;5105242;27;20427;-75
2022/01/06 08:06:10;;;;;;;23.85;5.55;;;5.50;99.90;;;;;;5102589;28;20408;-74
2022/01/06 08:08:36;;;;;;;20.20;5.47;;;5.50;99.90;;;;;;5102063;28;20854;-74
2022/01/06 08:11:02;;;;;;;29.83;6.40;;;5.40;99.90;;;;;;5103350;28;20414;-73
2022/01/06 08:13:28;;;;;;;29.83;6.25;;;5.50;99.90;;;;;;5103155;28;20452;-73
2022/01/06 08:15:54;;;;;;;25.20;6.57;;;5.50;99.90;;;;;;5111214;27;20449;-73
2022/01/06 08:18:19;;;;;;;31.03;7.50;;;5.60;99.90;;;;;;5103966;28;20404;-72
2022/01/06 08:20:45;;;;;;;26.23;4.95;;;5.60;99.90;;;;;;5103843;27;20416;-73
2022/01/06 08:23:11;;;;;;;25.00;5.20;;;5.70;99.90;;;;;;5101780;28;20404;-74
2022/01/06 08:25:37;;;;;;;25.92;5.60;;;5.80;99.90;;;;;;5098191;28;20406;-72
2022/01/06 08:28:03;;;;;;;25.77;5.50;;;6.00;99.90;;;;;;5096689;28;20432;-74
2022/01/06 08:30:29;;;;;;;26.25;5.65;;;6.10;99.90;;;;;;5096659;28;20424;-73
2022/01/06 08:32:56;;;;;;;30.23;5.43;;;6.10;99.90;;;;;;5105453;27;20415;-74
2022/01/06 08:35:24;;;;;;;21.10;5.38;;;6.20;99.90;;;;;;5103786;28;20891;-77
2022/01/06 08:37:50;;;;;;;28.20;5.40;;;6.30;99.90;;;;;;5104702;28;20424;-74
2022/01/06 08:40:16;;;;;;;20.90;5.13;;;6.40;99.90;;;;;;5106603;27;20571;-74
2022/01/06 08:42:42;;;;;;;23.27;5.93;;;6.00;99.90;;;;;;5109375;28;20213;-72
2022/01/06 08:45:09;;;;;;;24.10;4.50;;;5.70;99.90;;;;;;5097551;28;20189;-74
2022/01/06 08:47:35;;;;;;;22.95;4.50;;;5.60;99.90;;;;;;5104116;28;20189;-73
2022/01/06 08:50:01;;;;;;;27.52;4.85;;;5.40;99.90;;;;;;5107991;28;20542;-74
2022/01/06 08:52:27;;;;;;;22.27;3.85;;;5.30;99.90;;;;;;5104925;28;20209;-74
2022/01/06 08:54:52;;;;;;;21.58;3.47;;;5.30;99.90;;;;;;5113312;28;20808;-73
2022/01/06 08:57:18;;;;;;;25.08;4.90;;;5.30;99.90;;;;;;5087088;28;20476;-74
2022/01/06 08:59:44;;;;;;;38.27;5.93;;;5.60;99.90;;;;;;5112169;28;20400;-73
2022/01/06 09:02:10;;;;;;;26.47;5.33;;;6.10;99.90;;;;;;5108220;28;20419;-74
2022/01/06 09:04:35;;;;;;;25.35;4.88;;;6.30;99.90;;;;;;5103825;28;20400;-74
2022/01/06 09:07:03;;;;;;;25.10;4.87;;;6.50;99.90;;;;;;5106581;28;20743;-73
2022/01/06 09:09:29;;;;;;;25.88;4.53;;;6.70;99.90;;;;;;5102080;28;20868;-73
2022/01/06 09:11:55;;;;;;;24.30;4.50;;;6.90;99.90;;;;;;5083155;28;20419;-76
2022/01/06 09:14:22;;;;;;;30.87;4.97;;;7.00;99.90;;;;;;5106617;28;20776;-74
2022/01/06 09:16:49;;;;;;;23.10;4.60;;;7.10;99.90;;;;;;5103408;28;20482;-73
2022/01/06 09:19:15;;;;;;;25.15;4.95;;;7.40;99.90;;;;;;5104302;28;20396;-74
2022/01/06 09:21:41;;;;;;;24.50;3.97;;;8.40;99.90;;;;;;5085658;28;21241;-74
2022/01/06 09:24:07;;;;;;;24.00;4.38;;;9.70;97.80;;;;;;5101692;28;20411;-75
2022/01/06 09:26:34;;;;;;;19.90;4.13;;;11.10;94.60;;;;;;5092842;28;20419;-75
2022/01/06 09:29:05;;;;;;;23.13;4.38;;;12.40;91.90;;;;;;5107665;27;20411;-73
2022/01/06 09:31:33;;;;;;;24.63;4.50;;;13.60;87.80;;;;;;5106441;27;20444;-74
2022/01/06 09:33:59;;;;;;;19.67;4.33;;;14.70;81.30;;;;;;5110935;27;20411;-74
2022/01/06 09:36:27;;;;;;;17.20;4.07;;;15.60;75.20;;;;;;5124564;27;20399;-74
2022/01/06 09:38:55;;;;;;;20.63;4.10;;;16.40;70.20;;;;;;5108015;27;20492;-74
2022/01/06 09:41:22;;;;;;;20.42;4.28;;;17.10;66.70;;;;;;5106737;27;20450;-75
2022/01/06 09:43:51;;;;;;;18.35;4.40;;;17.80;61.00;;;;;;5109140;27;20503;-76
2022/01/06 09:46:20;;;;;;;20.15;5.22;;;18.30;58.60;;;;;;5107043;27;20408;-75
2022/01/06 09:48:45;;;;;;;22.27;4.30;;;18.70;56.30;;;;;;5111108;27;20433;-77
2022/01/06 09:51:11;;;;;;;20.02;4.03;;;19.00;55.00;;;;;;5111555;27;20447;-76
2022/01/06 09:53:37;;;;;;;17.00;3.65;;;19.30;52.40;;;;;;5110045;27;20408;-75
2022/01/06 09:56:03;;;;;;;15.90;3.63;;;19.50;51.70;;;;;;5111640;27;20421;-76
2022/01/06 09:58:29;;;;;;;19.10;4.10;;;19.60;51.20;;;;;;5118626;27;20435;-74
2022/01/06 10:00:56;;;;;;;18.92;4.22;;;19.70;50.70;;;;;;5107740;27;20408;-74
2022/01/06 10:03:34;;;;;;;20.35;4.20;;;19.90;49.70;;;;;;5097125;27;20503;-75
2022/01/06 10:06:30;;;;;;;19.95;4.00;;;20.00;48.70;;;;;;5125985;27;20943;-74
2022/01/06 10:08:59;;;;;;;21.38;3.60;;;20.00;47.90;;;;;;5076277;27;20465;-74
2022/01/06 10:11:26;;;;;;;21.50;3.20;;;20.00;47.60;;;;;;5094595;28;20416;-73
2022/01/06 10:14:06;;;;;;;14.55;3.30;;;19.80;47.60;;;;;;5114867;27;20776;-75
2022/01/06 10:16:32;;;;;;;21.85;3.30;;;19.30;48.60;;;;;;5110967;27;20907;-74
2022/01/06 10:18:59;;;;;;;18.50;2.87;;;18.50;50.50;;;;;;5108483;27;20439;-75
2022/01/06 10:21:29;;;;;;;15.10;2.53;;;17.80;52.30;;;;;;5117554;27;20446;-74
2022/01/06 10:24:11;;;;;;;16.48;2.42;;;16.80;54.30;;;;;;5092574;28;20422;-76
2022/01/06 10:26:49;;;;;;;8.97;1.73;;;15.90;57.10;;;;;;5108885;27;20412;-74
2022/01/06 10:29:16;;;;;;;;;;;14.90;59.20;;;;;;5110258;27;21084;-78
2022/01/06 10:31:42;;;;;;;;;;;13.20;62.50;;;;;;5114120;27;19908;-74
2022/01/06 10:34:07;;;;;;;;;;;12.00;66.40;;;;;;5116998;27;20041;-77
2022/01/06 10:36:35;;;;;;;;;;;11.10;69.40;;;;;;5116498;27;19911;-77
2022/01/06 10:39:02;;;;;;;4.80;1.20;;;10.50;73.20;;;;;;5116633;27;20427;-76
2022/01/06 10:41:28;;;;;;;5.80;1.00;;;10.70;78.20;;;;;;5110404;27;20423;-75
2022/01/06 10:43:58;;;;;;;4.93;1.07;;;10.70;79.40;;;;;;5112685;27;20900;-76
2022/01/06 10:46:35;;;;;;;7.40;1.20;;;10.50;81.60;;;;;;5113554;27;20426;-75
2022/01/06 10:49:10;;;;;;;5.57;1.15;;;10.30;83.70;;;;;;5111260;27;20732;-76
2022/01/06 10:51:41;;;;;;;7.25;1.40;;;10.00;85.70;;;;;;5115062;27;20762;-76
2022/01/06 10:54:18;;;;;;;5.95;1.05;;;9.80;87.50;;;;;;5120437;27;20414;-75
2022/01/06 10:56:59;;;;;;;6.20;1.17;;;9.60;88.70;;;;;;5114680;27;20429;-75
2022/01/06 10:59:32;;;;;;;7.13;1.10;;;9.40;89.40;;;;;;5114671;27;20888;-75
2022/01/06 11:01:59;;;;;;;7.23;1.60;;;9.20;90.40;;;;;;5113626;27;20399;-74
2022/01/06 11:04:25;;;;;;;7.70;1.50;;;9.20;91.50;;;;;;5110534;27;20415;-75
2022/01/06 11:06:51;;;;;;;18.33;6.53;;;9.30;92.40;;;;;;5116427;27;20406;-74
2022/01/06 11:09:17;;;;;;;17.60;7.93;;;9.40;92.50;;;;;;5113706;27;20740;-75
2022/01/06 11:14:15;;;;;;;7.50;1.80;;;9.60;93.90;;;;;;5114178;27;20765;-76
2022/01/06 11:16:42;;;;;;;8.38;1.65;;;9.70;94.10;;;;;;5105220;28;20408;-75
2022/01/06 11:19:11;;;;;;;7.13;1.80;;;9.90;94.20;;;;;;5115378;27;20411;-75
2022/01/06 11:21:43;;;;;;;9.80;1.90;;;10.10;93.20;;;;;;5107659;28;20746;-76
2022/01/06 11:24:10;;;;;;;7.33;1.70;;;10.20;91.80;;;;;;5105123;28;20407;-75
2022/01/06 11:26:35;;;;;;;10.95;1.92;;;10.40;91.40;;;;;;5106760;28;20427;-74
2022/01/06 11:29:01;;;;;;;12.73;1.80;;;10.40;90.90;;;;;;5112260;27;20404;-74
2022/01/06 11:31:34;;;;;;;10.20;2.00;;;10.50;91.00;;;;;;5121261;27;20471;-73
2022/01/06 11:34:14;;;;;;;9.77;2.30;;;10.60;90.90;;;;;;5110438;27;20416;-75
2022/01/06 11:36:40;;;;;;;8.85;1.60;;;10.60;90.70;;;;;;5109261;27;20412;-73
2022/01/06 11:39:08;;;;;;;11.68;2.30;;;10.50;90.20;;;;;;5110115;27;21295;-75
2022/01/06 11:41:34;;;;;;;9.55;1.70;;;10.30;90.40;;;;;;5104182;28;20431;-74
2022/01/06 11:44:02;;;;;;;10.13;1.85;;;10.10;91.10;;;;;;5093758;28;20502;-74
2022/01/06 11:46:40;;;;;;;8.50;1.90;;;9.90;91.60;;;;;;5104554;28;21045;-76
2022/01/06 11:49:05;;;;;;;9.57;1.80;;;9.90;92.00;;;;;;5111260;27;20408;-74
2022/01/06 11:51:35;;;;;;;10.50;1.80;;;9.90;92.40;;;;;;5104460;28;20423;-74
2022/01/06 11:54:21;;;;;;;7.30;1.55;;;9.90;92.80;;;;;;5108436;27;20427;-75
2022/01/06 11:56:49;;;;;;;7.38;1.73;;;10.10;93.00;;;;;;5111011;27;20411;-76
2022/01/06 11:59:15;;;;;;;9.13;1.88;;;10.70;92.20;;;;;;5109582;27;20475;-74
2022/01/06 12:01:49;;;;;;;8.60;1.70;;;11.40;90.70;;;;;;5116864;27;20813;-74
2022/01/06 12:04:21;;;;;;;9.63;1.60;;;12.20;88.80;;;;;;5136642;27;20404;-77
2022/01/06 12:06:47;;;;;;;7.90;1.45;;;12.90;83.90;;;;;;5102444;28;20810;-75
2022/01/06 12:09:21;;;;;;;9.63;1.60;;;13.60;80.90;;;;;;5103217;27;21285;-75
2022/01/06 12:11:58;;;;;;;7.90;1.65;;;13.90;77.20;;;;;;5108194;27;20415;-74
2022/01/06 12:14:25;;;;;;;8.05;1.65;;;13.90;76.70;;;;;;5117026;27;20456;-75
2022/01/06 12:16:51;;;;;;;6.28;1.45;;;14.00;76.60;;;;;;5108452;27;20400;-75
2022/01/06 12:19:24;;;;;;;5.73;1.30;;;14.10;76.50;;;;;;5105021;27;20472;-75
2022/01/06 12:21:50;;;;;;;9.13;1.90;;;14.40;75.70;;;;;;5125881;27;20420;-75
2022/01/06 12:24:16;;;;;;;9.10;1.98;;;14.60;74.40;;;;;;5108727;27;20420;-75
2022/01/06 12:26:43;;;;;;;8.67;1.70;;;14.70;72.10;;;;;;5103078;27;20411;-74
2022/01/06 12:29:14;;;;;;;9.50;1.90;;;14.40;72.10;;;;;;5113527;27;20904;-76
2022/01/06 12:31:42;;;;;;;11.75;4.47;;;13.80;75.00;;;;;;5112851;27;20713;-75
2022/01/06 12:34:08;;;;;;;10.13;2.42;;;12.80;78.80;;;;;;5109194;27;20197;-75
2022/01/06 12:36:34;;;;;;;;;;;12.00;81.80;;;;;;5110613;27;20032;-75
2022/01/06 12:39:05;;;;;;;;;;;11.40;83.90;;;;;;5111013;28;19919;-77
2022/01/06 12:41:32;;;;;;;;;;;10.70;86.40;;;;;;5113999;27;19923;-75
2022/01/06 12:43:58;;;;;;;;;;;10.30;87.70;;;;;;5128825;27;20292;-74
2022/01/06 12:46:29;;;;;;;;;;;10.00;89.20;;;;;;5106957;28;19916;-75
2022/01/06 12:48:55;;;;;;;;;;;9.80;90.20;;;;;;5104612;28;19908;-76
2022/01/06 12:51:22;;;;;;;;;;;9.50;90.90;;;;;;5105321;28;20014;-76
2022/01/06 12:53:48;;;;;;;;;;;9.30;91.00;;;;;;5107731;28;19907;-75
2022/01/06 12:56:24;;;;;;;;;;;9.00;90.70;;;;;;5114596;28;19908;-76
2022/01/06 12:58:49;;;;;;;;;;;8.80;91.10;;;;;;5094324;28;19908;-75